sensor_id;sensor_type;location;lat;lon;timestamp;P1;durP1;ratioP1;P2;durP2;ratioP2
1651;SDS011;823;49.028;8.454;2023-04-12T00:04:52;7.80;;;1.70;;
1651;SDS011;823;49.028;8.454;2023-04-12T00:09:56;3.53;;;1.30;;
1651;SDS011;823;49.028;8.454;2023-04-12T00:14:57;1.10;;;1.00;;
1651;SDS011;823;49.028;8.454;2023-04-12T00:19:57;3.00;;;1.83;;
1651;SDS011;823;49.028;8.454;2023-04-12T00:24:57;11.17;;;2.10;;
1651;SDS011;823;49.028;8.454;2023-04-12T00:29:58;5.83;;;1.33;;
1651;SDS011;823;49.028;8.454;2023-04-12T00:34:58;5.38;;;1.13;;
1651;SDS011;823;49.028;8.454;2023-04-12T00:39:58;5.47;;;1.43;;
1651;SDS011;823;49.028;8.454;2023-04-12T00:44:59;1.70;;;1.40;;
1651;SDS011;823;49.028;8.454;2023-04-12T00:49:59;2.10;;;1.23;;
1651;SDS011;823;49.028;8.454;2023-04-12T00:55:03;1.83;;;1.40;;
1651;SDS011;823;49.028;8.454;2023-04-12T01:00:05;3.67;;;1.60;;
1651;SDS011;823;49.028;8.454;2023-04-12T01:05:07;4.63;;;1.37;;
1651;SDS011;823;49.028;8.454;2023-04-12T01:10:08;4.13;;;1.43;;
1651;SDS011;823;49.028;8.454;2023-04-12T01:15:19;5.57;;;2.10;;
1651;SDS011;823;49.028;8.454;2023-04-12T01:20:24;3.83;;;1.63;;
1651;SDS011;823;49.028;8.454;2023-04-12T01:30:57;2.10;;;1.30;;
1651;SDS011;823;49.028;8.454;2023-04-12T01:36:02;3.73;;;1.70;;
1651;SDS011;823;49.028;8.454;2023-04-12T01:41:15;6.03;;;1.80;;
1651;SDS011;823;49.028;8.454;2023-04-12T01:46:17;3.70;;;1.70;;
1651;SDS011;823;49.028;8.454;2023-04-12T01:51:37;6.33;;;1.73;;
1651;SDS011;823;49.028;8.454;2023-04-12T01:56:58;5.50;;;2.00;;
1651;SDS011;823;49.028;8.454;2023-04-12T02:02:01;3.53;;;1.47;;
1651;SDS011;823;49.028;8.454;2023-04-12T02:07:02;3.83;;;1.57;;
1651;SDS011;823;49.028;8.454;2023-04-12T02:12:03;4.47;;;2.23;;
1651;SDS011;823;49.028;8.454;2023-04-12T02:17:06;3.50;;;1.50;;
1651;SDS011;823;49.028;8.454;2023-04-12T02:22:07;9.20;;;1.70;;
1651;SDS011;823;49.028;8.454;2023-04-12T02:27:07;3.00;;;1.50;;
1651;SDS011;823;49.028;8.454;2023-04-12T02:32:08;4.17;;;1.43;;
1651;SDS011;823;49.028;8.454;2023-04-12T02:37:09;3.00;;;1.00;;
1651;SDS011;823;49.028;8.454;2023-04-12T02:42:12;2.23;;;1.30;;
1651;SDS011;823;49.028;8.454;2023-04-12T02:47:13;1.50;;;1.03;;
1651;SDS011;823;49.028;8.454;2023-04-12T02:52:13;4.83;;;1.13;;
1651;SDS011;823;49.028;8.454;2023-04-12T02:57:14;3.93;;;1.33;;
1651;SDS011;823;49.028;8.454;2023-04-12T03:02:15;2.23;;;1.30;;
1651;SDS011;823;49.028;8.454;2023-04-12T03:07:16;7.80;;;1.23;;
1651;SDS011;823;49.028;8.454;2023-04-12T03:12:19;6.73;;;1.20;;
1651;SDS011;823;49.028;8.454;2023-04-12T03:17:20;3.27;;;1.10;;
1651;SDS011;823;49.028;8.454;2023-04-12T03:22:20;3.33;;;1.20;;
1651;SDS011;823;49.028;8.454;2023-04-12T03:27:21;2.37;;;1.20;;
1651;SDS011;823;49.028;8.454;2023-04-12T03:32:22;3.70;;;1.25;;
1651;SDS011;823;49.028;8.454;2023-04-12T03:37:23;3.37;;;1.13;;
1651;SDS011;823;49.028;8.454;2023-04-12T03:42:23;6.33;;;1.70;;
1651;SDS011;823;49.028;8.454;2023-04-12T03:47:24;5.00;;;1.40;;
1651;SDS011;823;49.028;8.454;2023-04-12T03:52:24;3.70;;;1.43;;
1651;SDS011;823;49.028;8.454;2023-04-12T03:57:24;3.70;;;2.00;;
1651;SDS011;823;49.028;8.454;2023-04-12T04:02:25;1.67;;;1.17;;
1651;SDS011;823;49.028;8.454;2023-04-12T04:07:26;2.07;;;1.17;;
1651;SDS011;823;49.028;8.454;2023-04-12T04:12:27;2.47;;;1.10;;
1651;SDS011;823;49.028;8.454;2023-04-12T04:17:27;1.63;;;1.10;;
1651;SDS011;823;49.028;8.454;2023-04-12T04:22:27;2.50;;;1.27;;
1651;SDS011;823;49.028;8.454;2023-04-12T04:27:31;2.90;;;1.50;;
1651;SDS011;823;49.028;8.454;2023-04-12T04:32:37;3.70;;;1.60;;
1651;SDS011;823;49.028;8.454;2023-04-12T04:37:38;1.73;;;1.43;;
1651;SDS011;823;49.028;8.454;2023-04-12T04:42:39;2.60;;;1.20;;
1651;SDS011;823;49.028;8.454;2023-04-12T04:47:41;1.80;;;0.93;;
1651;SDS011;823;49.028;8.454;2023-04-12T04:52:42;2.83;;;1.67;;
1651;SDS011;823;49.028;8.454;2023-04-12T04:57:43;2.50;;;1.23;;
1651;SDS011;823;49.028;8.454;2023-04-12T05:02:44;2.40;;;1.33;;
1651;SDS011;823;49.028;8.454;2023-04-12T05:07:44;2.20;;;1.57;;
1651;SDS011;823;49.028;8.454;2023-04-12T05:12:44;6.13;;;1.67;;
1651;SDS011;823;49.028;8.454;2023-04-12T05:17:45;4.00;;;1.87;;
1651;SDS011;823;49.028;8.454;2023-04-12T05:22:45;2.72;;;1.50;;
1651;SDS011;823;49.028;8.454;2023-04-12T05:27:46;2.63;;;1.50;;
1651;SDS011;823;49.028;8.454;2023-04-12T05:32:46;1.80;;;1.33;;
1651;SDS011;823;49.028;8.454;2023-04-12T05:37:46;12.57;;;1.30;;
1651;SDS011;823;49.028;8.454;2023-04-12T05:42:47;2.33;;;1.20;;
1651;SDS011;823;49.028;8.454;2023-04-12T05:47:47;5.82;;;1.73;;
1651;SDS011;823;49.028;8.454;2023-04-12T05:52:49;2.75;;;1.58;;
1651;SDS011;823;49.028;8.454;2023-04-12T05:57:49;3.77;;;1.93;;
1651;SDS011;823;49.028;8.454;2023-04-12T06:02:50;2.20;;;1.53;;
1651;SDS011;823;49.028;8.454;2023-04-12T06:07:51;2.90;;;1.60;;
1651;SDS011;823;49.028;8.454;2023-04-12T06:12:51;2.83;;;1.50;;
1651;SDS011;823;49.028;8.454;2023-04-12T06:17:52;2.03;;;1.20;;
1651;SDS011;823;49.028;8.454;2023-04-12T06:22:52;3.00;;;1.30;;
1651;SDS011;823;49.028;8.454;2023-04-12T06:27:52;1.73;;;1.63;;
1651;SDS011;823;49.028;8.454;2023-04-12T06:32:53;2.40;;;1.40;;
1651;SDS011;823;49.028;8.454;2023-04-12T06:37:53;3.53;;;2.00;;
1651;SDS011;823;49.028;8.454;2023-04-12T06:42:54;14.30;;;2.27;;
1651;SDS011;823;49.028;8.454;2023-04-12T06:47:54;3.33;;;1.65;;
1651;SDS011;823;49.028;8.454;2023-04-12T06:52:56;3.93;;;2.10;;
1651;SDS011;823;49.028;8.454;2023-04-12T06:57:56;3.17;;;2.33;;
1651;SDS011;823;49.028;8.454;2023-04-12T07:02:56;4.40;;;2.17;;
1651;SDS011;823;49.028;8.454;2023-04-12T07:07:57;8.00;;;3.53;;
1651;SDS011;823;49.028;8.454;2023-04-12T07:12:57;9.60;;;2.30;;
1651;SDS011;823;49.028;8.454;2023-04-12T07:18:02;6.07;;;3.47;;
1651;SDS011;823;49.028;8.454;2023-04-12T07:23:02;3.00;;;2.17;;
1651;SDS011;823;49.028;8.454;2023-04-12T07:28:03;6.33;;;3.13;;
1651;SDS011;823;49.028;8.454;2023-04-12T07:33:03;8.23;;;2.50;;
1651;SDS011;823;49.028;8.454;2023-04-12T07:38:04;6.40;;;2.00;;
1651;SDS011;823;49.028;8.454;2023-04-12T07:43:05;3.00;;;1.77;;
1651;SDS011;823;49.028;8.454;2023-04-12T07:48:05;7.70;;;2.00;;
1651;SDS011;823;49.028;8.454;2023-04-12T07:53:22;3.43;;;2.03;;
1651;SDS011;823;49.028;8.454;2023-04-12T07:58:23;3.43;;;2.10;;
1651;SDS011;823;49.028;8.454;2023-04-12T08:03:24;3.27;;;2.10;;
1651;SDS011;823;49.028;8.454;2023-04-12T08:08:24;7.80;;;2.23;;
1651;SDS011;823;49.028;8.454;2023-04-12T08:13:25;4.40;;;2.10;;
1651;SDS011;823;49.028;8.454;2023-04-12T08:18:25;5.43;;;2.37;;
1651;SDS011;823;49.028;8.454;2023-04-12T08:23:27;3.70;;;2.60;;
1651;SDS011;823;49.028;8.454;2023-04-12T08:28:27;4.63;;;2.07;;
1651;SDS011;823;49.028;8.454;2023-04-12T08:33:28;3.50;;;1.93;;
1651;SDS011;823;49.028;8.454;2023-04-12T08:38:29;5.60;;;2.50;;
1651;SDS011;823;49.028;8.454;2023-04-12T08:43:29;3.00;;;1.90;;
1651;SDS011;823;49.028;8.454;2023-04-12T08:48:33;4.90;;;2.20;;
1651;SDS011;823;49.028;8.454;2023-04-12T08:53:35;8.53;;;2.97;;
1651;SDS011;823;49.028;8.454;2023-04-12T08:58:35;3.97;;;2.33;;
1651;SDS011;823;49.028;8.454;2023-04-12T09:03:38;10.57;;;3.00;;
1651;SDS011;823;49.028;8.454;2023-04-12T09:08:52;8.07;;;2.30;;
1651;SDS011;823;49.028;8.454;2023-04-12T09:13:54;9.17;;;2.33;;
1651;SDS011;823;49.028;8.454;2023-04-12T09:18:55;3.23;;;1.90;;
1651;SDS011;823;49.028;8.454;2023-04-12T09:24:04;5.07;;;2.80;;
1651;SDS011;823;49.028;8.454;2023-04-12T09:29:21;6.63;;;2.67;;
1651;SDS011;823;49.028;8.454;2023-04-12T09:34:24;4.80;;;2.37;;
1651;SDS011;823;49.028;8.454;2023-04-12T09:39:31;13.73;;;3.20;;
1651;SDS011;823;49.028;8.454;2023-04-12T09:44:32;7.30;;;2.30;;
1651;SDS011;823;49.028;8.454;2023-04-12T09:49:37;3.50;;;1.93;;
1651;SDS011;823;49.028;8.454;2023-04-12T09:54:47;7.27;;;2.90;;
1651;SDS011;823;49.028;8.454;2023-04-12T09:59:49;5.53;;;2.60;;
1651;SDS011;823;49.028;8.454;2023-04-12T10:04:51;7.00;;;2.10;;
1651;SDS011;823;49.028;8.454;2023-04-12T10:09:52;8.10;;;2.57;;
1651;SDS011;823;49.028;8.454;2023-04-12T10:14:54;3.87;;;1.70;;
1651;SDS011;823;49.028;8.454;2023-04-12T10:19:55;6.00;;;2.20;;
1651;SDS011;823;49.028;8.454;2023-04-12T10:24:56;4.13;;;1.67;;
1651;SDS011;823;49.028;8.454;2023-04-12T10:35:24;2.33;;;1.13;;
1651;SDS011;823;49.028;8.454;2023-04-12T10:40:25;3.22;;;1.20;;
1651;SDS011;823;49.028;8.454;2023-04-12T10:50:32;1.40;;;0.83;;
1651;SDS011;823;49.028;8.454;2023-04-12T10:55:34;4.10;;;0.90;;
1651;SDS011;823;49.028;8.454;2023-04-12T11:05:57;2.40;;;0.80;;
1651;SDS011;823;49.028;8.454;2023-04-12T11:11:00;2.60;;;0.83;;
1651;SDS011;823;49.028;8.454;2023-04-12T11:16:02;1.80;;;0.90;;
1651;SDS011;823;49.028;8.454;2023-04-12T11:21:05;3.70;;;0.73;;
1651;SDS011;823;49.028;8.454;2023-04-12T11:26:06;1.23;;;0.70;;
1651;SDS011;823;49.028;8.454;2023-04-12T11:31:06;1.10;;;0.90;;
1651;SDS011;823;49.028;8.454;2023-04-12T11:36:07;0.90;;;0.60;;
1651;SDS011;823;49.028;8.454;2023-04-12T11:41:12;2.70;;;0.70;;
1651;SDS011;823;49.028;8.454;2023-04-12T11:46:13;1.60;;;0.73;;
1651;SDS011;823;49.028;8.454;2023-04-12T11:51:21;1.33;;;0.70;;
1651;SDS011;823;49.028;8.454;2023-04-12T11:56:24;3.00;;;0.80;;
1651;SDS011;823;49.028;8.454;2023-04-12T12:01:25;2.73;;;0.93;;
1651;SDS011;823;49.028;8.454;2023-04-12T12:06:27;1.20;;;0.80;;
1651;SDS011;823;49.028;8.454;2023-04-12T12:11:28;5.50;;;0.87;;
1651;SDS011;823;49.028;8.454;2023-04-12T12:16:29;1.20;;;0.70;;
1651;SDS011;823;49.028;8.454;2023-04-12T12:21:29;2.40;;;1.17;;
1651;SDS011;823;49.028;8.454;2023-04-12T12:26:30;0.93;;;0.67;;
1651;SDS011;823;49.028;8.454;2023-04-12T12:31:30;1.52;;;0.60;;
1651;SDS011;823;49.028;8.454;2023-04-12T12:36:33;5.20;;;0.80;;
1651;SDS011;823;49.028;8.454;2023-04-12T12:41:35;1.20;;;0.70;;
1651;SDS011;823;49.028;8.454;2023-04-12T12:46:36;2.40;;;0.60;;
1651;SDS011;823;49.028;8.454;2023-04-12T12:51:36;5.27;;;1.30;;
1651;SDS011;823;49.028;8.454;2023-04-12T12:56:36;3.00;;;0.73;;
1651;SDS011;823;49.028;8.454;2023-04-12T13:01:37;2.03;;;0.70;;
1651;SDS011;823;49.028;8.454;2023-04-12T13:06:37;2.53;;;0.83;;
1651;SDS011;823;49.028;8.454;2023-04-12T13:11:38;3.73;;;0.60;;
1651;SDS011;823;49.028;8.454;2023-04-12T13:16:38;2.10;;;0.80;;
1651;SDS011;823;49.028;8.454;2023-04-12T13:21:39;1.60;;;0.93;;
1651;SDS011;823;49.028;8.454;2023-04-12T13:26:40;4.40;;;0.87;;
1651;SDS011;823;49.028;8.454;2023-04-12T13:31:42;18.60;;;2.80;;
1651;SDS011;823;49.028;8.454;2023-04-12T13:36:42;2.90;;;1.00;;
1651;SDS011;823;49.028;8.454;2023-04-12T13:41:42;2.43;;;0.77;;
1651;SDS011;823;49.028;8.454;2023-04-12T13:46:43;1.17;;;0.60;;
1651;SDS011;823;49.028;8.454;2023-04-12T13:51:43;6.03;;;1.20;;
1651;SDS011;823;49.028;8.454;2023-04-12T13:56:44;1.77;;;0.70;;
1651;SDS011;823;49.028;8.454;2023-04-12T14:01:44;4.75;;;0.88;;
1651;SDS011;823;49.028;8.454;2023-04-12T14:06:45;21.43;;;1.20;;
1651;SDS011;823;49.028;8.454;2023-04-12T14:11:46;1.27;;;0.77;;
1651;SDS011;823;49.028;8.454;2023-04-12T14:16:50;4.00;;;0.77;;
1651;SDS011;823;49.028;8.454;2023-04-12T14:21:52;3.13;;;0.90;;
1651;SDS011;823;49.028;8.454;2023-04-12T14:26:53;2.80;;;0.90;;
1651;SDS011;823;49.028;8.454;2023-04-12T14:31:53;0.83;;;0.60;;
1651;SDS011;823;49.028;8.454;2023-04-12T14:36:53;1.40;;;0.80;;
1651;SDS011;823;49.028;8.454;2023-04-12T14:41:55;5.33;;;0.50;;
1651;SDS011;823;49.028;8.454;2023-04-12T14:46:56;2.17;;;0.70;;
1651;SDS011;823;49.028;8.454;2023-04-12T14:51:56;5.00;;;0.98;;
1651;SDS011;823;49.028;8.454;2023-04-12T14:56:56;2.07;;;0.83;;
1651;SDS011;823;49.028;8.454;2023-04-12T15:01:57;2.13;;;0.50;;
1651;SDS011;823;49.028;8.454;2023-04-12T15:06:58;1.00;;;0.60;;
1651;SDS011;823;49.028;8.454;2023-04-12T15:11:59;13.67;;;0.90;;
1651;SDS011;823;49.028;8.454;2023-04-12T15:17:01;2.20;;;1.00;;
1651;SDS011;823;49.028;8.454;2023-04-12T15:22:02;2.73;;;1.50;;
1651;SDS011;823;49.028;8.454;2023-04-12T15:27:03;1.37;;;1.00;;
1651;SDS011;823;49.028;8.454;2023-04-12T15:32:04;1.67;;;0.93;;
1651;SDS011;823;49.028;8.454;2023-04-12T15:37:04;1.50;;;0.90;;
1651;SDS011;823;49.028;8.454;2023-04-12T15:42:04;1.40;;;1.13;;
1651;SDS011;823;49.028;8.454;2023-04-12T15:47:05;2.73;;;0.87;;
1651;SDS011;823;49.028;8.454;2023-04-12T15:52:05;1.47;;;0.80;;
1651;SDS011;823;49.028;8.454;2023-04-12T15:57:06;1.60;;;0.73;;
1651;SDS011;823;49.028;8.454;2023-04-12T16:02:08;1.20;;;0.70;;
1651;SDS011;823;49.028;8.454;2023-04-12T16:07:08;1.13;;;0.90;;
1651;SDS011;823;49.028;8.454;2023-04-12T16:12:09;2.60;;;0.70;;
1651;SDS011;823;49.028;8.454;2023-04-12T16:17:10;1.13;;;0.60;;
1651;SDS011;823;49.028;8.454;2023-04-12T16:22:11;2.50;;;0.50;;
1651;SDS011;823;49.028;8.454;2023-04-12T16:27:11;0.80;;;0.40;;
1651;SDS011;823;49.028;8.454;2023-04-12T16:32:12;1.73;;;0.70;;
1651;SDS011;823;49.028;8.454;2023-04-12T16:37:12;3.60;;;0.55;;
1651;SDS011;823;49.028;8.454;2023-04-12T16:42:12;0.80;;;0.43;;
1651;SDS011;823;49.028;8.454;2023-04-12T16:47:12;1.85;;;0.80;;
1651;SDS011;823;49.028;8.454;2023-04-12T16:52:13;1.07;;;0.60;;
1651;SDS011;823;49.028;8.454;2023-04-12T16:57:14;0.90;;;0.60;;
1651;SDS011;823;49.028;8.454;2023-04-12T17:02:15;1.77;;;0.63;;
1651;SDS011;823;49.028;8.454;2023-04-12T17:07:16;0.80;;;0.40;;
1651;SDS011;823;49.028;8.454;2023-04-12T17:12:16;0.90;;;0.70;;
1651;SDS011;823;49.028;8.454;2023-04-12T17:17:17;1.00;;;0.60;;
1651;SDS011;823;49.028;8.454;2023-04-12T17:22:17;1.23;;;0.87;;
1651;SDS011;823;49.028;8.454;2023-04-12T17:27:17;1.20;;;0.50;;
1651;SDS011;823;49.028;8.454;2023-04-12T17:32:17;2.10;;;0.85;;
1651;SDS011;823;49.028;8.454;2023-04-12T17:37:18;1.10;;;0.60;;
1651;SDS011;823;49.028;8.454;2023-04-12T17:42:18;0.73;;;0.40;;
1651;SDS011;823;49.028;8.454;2023-04-12T17:47:20;0.90;;;0.60;;
1651;SDS011;823;49.028;8.454;2023-04-12T17:52:21;1.67;;;0.70;;
1651;SDS011;823;49.028;8.454;2023-04-12T17:57:21;1.00;;;0.60;;
1651;SDS011;823;49.028;8.454;2023-04-12T18:02:22;1.10;;;0.57;;
1651;SDS011;823;49.028;8.454;2023-04-12T18:07:22;0.90;;;0.68;;
1651;SDS011;823;49.028;8.454;2023-04-12T18:12:23;1.20;;;0.60;;
1651;SDS011;823;49.028;8.454;2023-04-12T18:17:23;1.38;;;0.85;;
1651;SDS011;823;49.028;8.454;2023-04-12T18:22:24;1.20;;;0.70;;
1651;SDS011;823;49.028;8.454;2023-04-12T18:27:24;1.25;;;0.63;;
1651;SDS011;823;49.028;8.454;2023-04-12T18:32:24;7.73;;;0.67;;
1651;SDS011;823;49.028;8.454;2023-04-12T18:37:25;1.17;;;0.60;;
1651;SDS011;823;49.028;8.454;2023-04-12T18:42:26;0.90;;;0.50;;
1651;SDS011;823;49.028;8.454;2023-04-12T18:47:26;0.87;;;0.53;;
1651;SDS011;823;49.028;8.454;2023-04-12T18:52:26;3.07;;;0.87;;
1651;SDS011;823;49.028;8.454;2023-04-12T18:57:27;1.30;;;0.80;;
1651;SDS011;823;49.028;8.454;2023-04-12T19:02:28;3.43;;;1.10;;
1651;SDS011;823;49.028;8.454;2023-04-12T19:07:28;2.75;;;1.58;;
1651;SDS011;823;49.028;8.454;2023-04-12T19:12:29;1.80;;;1.10;;
1651;SDS011;823;49.028;8.454;2023-04-12T19:17:29;1.80;;;0.97;;
1651;SDS011;823;49.028;8.454;2023-04-12T19:22:30;7.90;;;0.80;;
1651;SDS011;823;49.028;8.454;2023-04-12T19:27:30;1.00;;;0.60;;
1651;SDS011;823;49.028;8.454;2023-04-12T19:32:30;1.10;;;0.50;;
1651;SDS011;823;49.028;8.454;2023-04-12T19:37:31;1.10;;;0.68;;
1651;SDS011;823;49.028;8.454;2023-04-12T19:42:32;1.10;;;0.60;;
1651;SDS011;823;49.028;8.454;2023-04-12T19:47:33;1.77;;;0.50;;
1651;SDS011;823;49.028;8.454;2023-04-12T19:52:33;0.90;;;0.65;;
1651;SDS011;823;49.028;8.454;2023-04-12T19:57:34;1.13;;;0.70;;
1651;SDS011;823;49.028;8.454;2023-04-12T20:02:40;2.03;;;0.80;;
1651;SDS011;823;49.028;8.454;2023-04-12T20:07:41;1.00;;;0.50;;
1651;SDS011;823;49.028;8.454;2023-04-12T20:12:43;1.43;;;0.77;;
1651;SDS011;823;49.028;8.454;2023-04-12T20:17:44;1.53;;;0.60;;
1651;SDS011;823;49.028;8.454;2023-04-12T20:22:46;2.70;;;1.00;;
1651;SDS011;823;49.028;8.454;2023-04-12T20:27:50;2.37;;;0.80;;
1651;SDS011;823;49.028;8.454;2023-04-12T20:32:51;2.13;;;0.80;;
1651;SDS011;823;49.028;8.454;2023-04-12T20:37:53;2.30;;;1.10;;
1651;SDS011;823;49.028;8.454;2023-04-12T20:42:54;1.30;;;0.80;;
1651;SDS011;823;49.028;8.454;2023-04-12T20:47:55;3.87;;;0.87;;
1651;SDS011;823;49.028;8.454;2023-04-12T20:52:56;1.53;;;0.60;;
1651;SDS011;823;49.028;8.454;2023-04-12T20:57:57;1.60;;;0.63;;
1651;SDS011;823;49.028;8.454;2023-04-12T21:02:59;1.53;;;0.63;;
1651;SDS011;823;49.028;8.454;2023-04-12T21:08:01;2.70;;;0.90;;
1651;SDS011;823;49.028;8.454;2023-04-12T21:13:02;9.33;;;0.97;;
1651;SDS011;823;49.028;8.454;2023-04-12T21:18:02;1.57;;;0.67;;
1651;SDS011;823;49.028;8.454;2023-04-12T21:23:03;3.33;;;0.60;;
1651;SDS011;823;49.028;8.454;2023-04-12T21:28:04;1.53;;;0.70;;
1651;SDS011;823;49.028;8.454;2023-04-12T21:33:06;1.57;;;1.10;;
1651;SDS011;823;49.028;8.454;2023-04-12T21:38:07;1.20;;;1.00;;
1651;SDS011;823;49.028;8.454;2023-04-12T21:43:07;3.15;;;1.33;;
1651;SDS011;823;49.028;8.454;2023-04-12T21:48:07;1.73;;;1.10;;
1651;SDS011;823;49.028;8.454;2023-04-12T21:53:08;1.37;;;0.70;;
1651;SDS011;823;49.028;8.454;2023-04-12T21:58:08;1.55;;;0.77;;
1651;SDS011;823;49.028;8.454;2023-04-12T22:03:08;1.30;;;0.83;;
1651;SDS011;823;49.028;8.454;2023-04-12T22:08:09;1.15;;;0.60;;
1651;SDS011;823;49.028;8.454;2023-04-12T22:13:09;4.70;;;1.00;;
1651;SDS011;823;49.028;8.454;2023-04-12T22:18:09;0.90;;;0.70;;
1651;SDS011;823;49.028;8.454;2023-04-12T22:23:10;1.87;;;0.97;;
1651;SDS011;823;49.028;8.454;2023-04-12T22:28:10;1.53;;;0.80;;
1651;SDS011;823;49.028;8.454;2023-04-12T22:33:11;2.23;;;0.80;;
1651;SDS011;823;49.028;8.454;2023-04-12T22:38:12;3.30;;;0.70;;
1651;SDS011;823;49.028;8.454;2023-04-12T22:43:13;1.37;;;0.60;;
1651;SDS011;823;49.028;8.454;2023-04-12T22:48:17;1.57;;;0.80;;
1651;SDS011;823;49.028;8.454;2023-04-12T22:53:19;2.80;;;0.93;;
1651;SDS011;823;49.028;8.454;2023-04-12T22:58:19;1.20;;;0.90;;
1651;SDS011;823;49.028;8.454;2023-04-12T23:03:20;4.43;;;0.80;;
1651;SDS011;823;49.028;8.454;2023-04-12T23:08:20;2.33;;;0.80;;
1651;SDS011;823;49.028;8.454;2023-04-12T23:13:21;1.47;;;1.00;;
1651;SDS011;823;49.028;8.454;2023-04-12T23:18:22;7.33;;;0.80;;
1651;SDS011;823;49.028;8.454;2023-04-12T23:23:24;2.83;;;1.00;;
1651;SDS011;823;49.028;8.454;2023-04-12T23:28:25;3.17;;;0.70;;
1651;SDS011;823;49.028;8.454;2023-04-12T23:33:25;1.77;;;0.70;;
1651;SDS011;823;49.028;8.454;2023-04-12T23:38:27;1.27;;;0.73;;
1651;SDS011;823;49.028;8.454;2023-04-12T23:43:32;1.43;;;0.90;;
1651;SDS011;823;49.028;8.454;2023-04-12T23:48:36;1.27;;;0.77;;
1651;SDS011;823;49.028;8.454;2023-04-12T23:53:36;1.43;;;0.80;;
1651;SDS011;823;49.028;8.454;2023-04-12T23:58:36;6.53;;;0.80;;
